Time;durP1;ratioP1;P1;durP2;ratioP2;P2;SDS_P1;SDS_P2;PMS_P1;PMS_P2;Temp;Humidity;BMP_temperature;BMP_pressure;BME280_temperature;BME280_humidity;BME280_pressure;Samples;Min_cycle;Max_cycle;Signal;HPM_P1;HPM_P2
2021/01/31 00:00:57;;;;;;;4.2;2.6;;;;;;;;;;;;;
2021/01/31 00:03:24;;;;;;;4.9;3;;;;;;;;;;;;;
2021/01/31 00:05:50;;;;;;;3.9;2.2;;;;;;;;;;;;;
2021/01/31 00:08:16;;;;;;;5.3;2.4;;;;;;;;;;;;;
2021/01/31 00:10:44;;;;;;;2.9;2.2;;;;;;;;;;;;;
2021/01/31 00:13:11;;;;;;;3.4;2;;;;;;;;;;;;;
2021/01/31 00:15:37;;;;;;;1.9;1.6;;;;;;;;;;;;;
2021/01/31 00:18:02;;;;;;;4.5;1.9;;;;;;;;;;;;;
2021/01/31 00:20:27;;;;;;;1.9;1.4;;;;;;;;;;;;;
2021/01/31 00:22:54;;;;;;;2.1;1.5;;;;;;;;;;;;;
2021/01/31 00:25:19;;;;;;;3.2;1.9;;;;;;;;;;;;;
2021/01/31 00:27:44;;;;;;;2.2;1.7;;;;;;;;;;;;;
2021/01/31 00:30:09;;;;;;;5;1.6;;;;;;;;;;;;;
2021/01/31 00:32:34;;;;;;;2.4;1.6;;;;;;;;;;;;;
2021/01/31 00:34:59;;;;;;;3.1;1.9;;;;;;;;;;;;;
2021/01/31 00:37:25;;;;;;;3.6;2.2;;;;;;;;;;;;;
2021/01/31 00:39:51;;;;;;;3.1;2;;;;;;;;;;;;;
2021/01/31 00:42:17;;;;;;;4;2.2;;;;;;;;;;;;;
2021/01/31 00:44:42;;;;;;;4.5;2.4;;;;;;;;;;;;;
2021/01/31 00:47:08;;;;;;;4;2.1;;;;;;;;;;;;;
2021/01/31 00:49:33;;;;;;;2.4;1.5;;;;;;;;;;;;;
2021/01/31 00:51:58;;;;;;;3.5;1.7;;;;;;;;;;;;;
2021/01/31 00:54:24;;;;;;;2.9;1.5;;;;;;;;;;;;;
2021/01/31 00:56:50;;;;;;;3.5;1.6;;;;;;;;;;;;;
2021/01/31 00:59:15;;;;;;;1.2;1;;;;;;;;;;;;;
2021/01/31 01:01:41;;;;;;;1.2;0.9;;;;;;;;;;;;;
2021/01/31 01:04:06;;;;;;;1.7;1.1;;;;;;;;;;;;;
2021/01/31 01:06:32;;;;;;;2.5;0.9;;;;;;;;;;;;;
2021/01/31 01:08:58;;;;;;;1.3;1;;;;;;;;;;;;;
2021/01/31 01:11:23;;;;;;;2.4;1.2;;;;;;;;;;;;;
2021/01/31 01:13:48;;;;;;;1.4;1;;;;;;;;;;;;;
2021/01/31 01:16:16;;;;;;;0.8;0.8;;;;;;;;;;;;;
2021/01/31 01:18:41;;;;;;;2.2;1.2;;;;;;;;;;;;;
2021/01/31 01:21:07;;;;;;;0.7;0.7;;;;;;;;;;;;;
2021/01/31 01:23:32;;;;;;;2.9;0.6;;;;;;;;;;;;;
2021/01/31 01:25:58;;;;;;;0.7;0.7;;;;;;;;;;;;;
2021/01/31 01:28:23;;;;;;;0.8;0.8;;;;;;;;;;;;;
2021/01/31 01:30:51;;;;;;;3.7;1.1;;;;;;;;;;;;;
2021/01/31 01:33:16;;;;;;;1.2;1.1;;;;;;;;;;;;;
2021/01/31 01:35:46;;;;;;;1.2;0.7;;;;;;;;;;;;;
2021/01/31 01:38:11;;;;;;;2.9;1.1;;;;;;;;;;;;;
2021/01/31 01:40:36;;;;;;;9.1;1;;;;;;;;;;;;;
2021/01/31 01:43:01;;;;;;;2.3;0.9;;;;;;;;;;;;;
2021/01/31 01:45:27;;;;;;;2;1;;;;;;;;;;;;;
2021/01/31 01:47:52;;;;;;;1.9;1.1;;;;;;;;;;;;;
2021/01/31 01:50:17;;;;;;;0.7;0.7;;;;;;;;;;;;;
2021/01/31 01:52:42;;;;;;;1.6;0.9;;;;;;;;;;;;;
2021/01/31 01:55:07;;;;;;;0.5;0.5;;;;;;;;;;;;;
2021/01/31 01:57:33;;;;;;;0.8;0.6;;;;;;;;;;;;;
2021/01/31 01:59:59;;;;;;;0.6;0.5;;;;;;;;;;;;;
2021/01/31 02:02:25;;;;;;;0.4;0.4;;;;;;;;;;;;;
2021/01/31 02:04:51;;;;;;;0.4;0.4;;;;;;;;;;;;;
2021/01/31 02:07:16;;;;;;;0.6;0.5;;;;;;;;;;;;;
2021/01/31 02:09:41;;;;;;;0.6;0.6;;;;;;;;;;;;;
2021/01/31 02:12:06;;;;;;;3.1;1.1;;;;;;;;;;;;;
2021/01/31 02:14:32;;;;;;;2.3;1.2;;;;;;;;;;;;;
2021/01/31 02:16:57;;;;;;;2.5;1.6;;;;;;;;;;;;;
2021/01/31 02:19:23;;;;;;;1.8;0.9;;;;;;;;;;;;;
2021/01/31 02:21:49;;;;;;;1.9;1.3;;;;;;;;;;;;;
2021/01/31 02:24:14;;;;;;;1.5;1.3;;;;;;;;;;;;;
2021/01/31 02:26:39;;;;;;;1.7;1.1;;;;;;;;;;;;;
2021/01/31 02:29:07;;;;;;;1.9;1;;;;;;;;;;;;;
2021/01/31 02:31:33;;;;;;;2.5;1.3;;;;;;;;;;;;;
2021/01/31 02:33:58;;;;;;;0.9;0.9;;;;;;;;;;;;;
2021/01/31 02:36:24;;;;;;;1.7;1.1;;;;;;;;;;;;;
2021/01/31 02:38:49;;;;;;;0.6;0.6;;;;;;;;;;;;;
2021/01/31 02:41:14;;;;;;;1.9;0.7;;;;;;;;;;;;;
2021/01/31 02:43:40;;;;;;;1.9;1;;;;;;;;;;;;;
2021/01/31 02:46:05;;;;;;;3.3;1.1;;;;;;;;;;;;;
2021/01/31 02:48:30;;;;;;;1;0.8;;;;;;;;;;;;;
2021/01/31 02:50:55;;;;;;;1.2;0.7;;;;;;;;;;;;;
2021/01/31 02:53:21;;;;;;;0.8;0.8;;;;;;;;;;;;;
2021/01/31 02:55:46;;;;;;;1.4;0.8;;;;;;;;;;;;;
2021/01/31 02:58:11;;;;;;;1.1;0.9;;;;;;;;;;;;;
2021/01/31 03:00:36;;;;;;;1.3;0.8;;;;;;;;;;;;;
2021/01/31 03:03:01;;;;;;;2.4;1;;;;;;;;;;;;;
2021/01/31 03:05:26;;;;;;;3;0.9;;;;;;;;;;;;;
2021/01/31 03:07:52;;;;;;;1.1;0.7;;;;;;;;;;;;;
2021/01/31 03:10:17;;;;;;;1.2;0.9;;;;;;;;;;;;;
2021/01/31 03:12:43;;;;;;;1;0.8;;;;;;;;;;;;;
2021/01/31 03:15:08;;;;;;;2;1;;;;;;;;;;;;;
2021/01/31 03:17:35;;;;;;;2.2;0.9;;;;;;;;;;;;;
2021/01/31 03:20:01;;;;;;;1.6;1;;;;;;;;;;;;;
2021/01/31 03:22:26;;;;;;;1.3;0.7;;;;;;;;;;;;;
2021/01/31 03:24:52;;;;;;;0.6;0.6;;;;;;;;;;;;;
2021/01/31 03:27:17;;;;;;;1.4;0.9;;;;;;;;;;;;;
2021/01/31 03:29:42;;;;;;;1.1;1;;;;;;;;;;;;;
2021/01/31 03:32:08;;;;;;;1.1;0.9;;;;;;;;;;;;;
2021/01/31 03:34:33;;;;;;;0.9;0.7;;;;;;;;;;;;;
2021/01/31 03:36:58;;;;;;;0.9;0.7;;;;;;;;;;;;;
2021/01/31 03:39:23;;;;;;;1.4;0.9;;;;;;;;;;;;;
2021/01/31 03:41:49;;;;;;;1.4;0.8;;;;;;;;;;;;;
2021/01/31 03:44:14;;;;;;;1.4;0.9;;;;;;;;;;;;;
2021/01/31 03:46:40;;;;;;;0.6;0.6;;;;;;;;;;;;;
2021/01/31 03:49:05;;;;;;;0.8;0.5;;;;;;;;;;;;;
2021/01/31 03:51:31;;;;;;;1;0.7;;;;;;;;;;;;;
2021/01/31 03:53:56;;;;;;;2.3;1;;;;;;;;;;;;;
2021/01/31 03:56:21;;;;;;;1.3;0.7;;;;;;;;;;;;;
2021/01/31 03:58:48;;;;;;;0.6;0.6;;;;;;;;;;;;;
2021/01/31 04:02:30;;;;;;;1.2;0.8;;;;;;;4.69;87.9082;919.2709;;;;
2021/01/31 04:04:55;;;;;;;1.1;0.8;;;;;;;4.55;88.63477;919.3297;;;;
2021/01/31 04:07:23;;;;;;;0.7;0.7;;;;;;;4.52;88.94434;919.3541;;;;
2021/01/31 04:09:48;;;;;;;1;0.8;;;;;;;4.47;89.35156;919.3147;;;;
2021/01/31 04:12:14;;;;;;;0.7;0.6;;;;;;;4.54;89.24316;919.4266;;;;
2021/01/31 04:14:39;;;;;;;1.7;0.7;;;;;;;4.55;89.15234;919.4124;;;;
2021/01/31 04:17:04;;;;;;;1.6;0.7;;;;;;;4.54;89.1416;919.4534;;;;
2021/01/31 04:19:29;;;;;;;0.5;0.5;;;;;;;4.52;89.1582;919.4724;;;;
2021/01/31 04:21:57;;;;;;;0.7;0.5;;;;;;;4.58;88.87891;919.3983;;;;
2021/01/31 04:24:22;;;;;;;0.5;0.5;;;;;;;4.64;88.55371;919.4664;;;;
2021/01/31 04:26:50;;;;;;;0.6;0.5;;;;;;;4.62;88.57129;919.479;;;;
2021/01/31 04:29:15;;;;;;;0.5;0.4;;;;;;;4.67;88.37988;919.3947;;;;
2021/01/31 04:31:45;;;;;;;0.8;0.7;;;;;;;4.59;88.58789;919.5433;;;;
2021/01/31 04:34:13;;;;;;;0.7;0.4;;;;;;;4.63;88.56152;919.5295;;;;
2021/01/31 04:36:38;;;;;;;4.9;0.6;;;;;;;4.71;88.18457;919.5137;;;;
2021/01/31 04:39:09;;;;;;;0.5;0.4;;;;;;;4.64;88.05859;919.505;;;;
2021/01/31 04:41:34;;;;;;;0.7;0.5;;;;;;;4.64;88.39453;919.5082;;;;
2021/01/31 04:43:59;;;;;;;0.4;0.4;;;;;;;4.64;88.49609;919.4711;;;;
2021/01/31 04:46:27;;;;;;;0.4;0.4;;;;;;;4.61;88.5127;919.4183;;;;
2021/01/31 04:48:55;;;;;;;0.4;0.4;;;;;;;4.62;88.51465;919.5262;;;;
2021/01/31 04:51:20;;;;;;;1;0.6;;;;;;;4.65;88.45313;919.4972;;;;
2021/01/31 04:53:46;;;;;;;1.2;0.7;;;;;;;4.59;88.58789;919.563;;;;
2021/01/31 04:56:11;;;;;;;0.8;0.8;;;;;;;4.49;89.04004;919.5605;;;;
2021/01/31 04:58:37;;;;;;;1.1;0.9;;;;;;;4.54;89.15039;919.615;;;;
2021/01/31 05:01:02;;;;;;;1.9;0.9;;;;;;;4.64;88.83398;919.5909;;;;
2021/01/31 05:03:27;;;;;;;1.2;0.7;;;;;;;4.67;88.51465;919.5981;;;;
2021/01/31 05:05:55;;;;;;;2.3;1;;;;;;;4.72;87.98535;919.6186;;;;
2021/01/31 05:08:20;;;;;;;1.5;1.1;;;;;;;4.75;87.50586;919.6226;;;;
2021/01/31 05:10:46;;;;;;;1.1;0.8;;;;;;;4.66;87.78027;919.6075;;;;
2021/01/31 05:13:11;;;;;;;0.5;0.4;;;;;;;4.53;88.50879;919.6425;;;;
2021/01/31 05:15:40;;;;;;;0.6;0.5;;;;;;;4.52;88.92188;919.6362;;;;
2021/01/31 05:18:06;;;;;;;1.3;0.8;;;;;;;4.56;88.7959;919.6489;;;;
2021/01/31 05:20:38;;;;;;;0.9;0.7;;;;;;;4.61;88.82813;919.6863;;;;
2021/01/31 05:23:06;;;;;;;2.1;0.9;;;;;;;4.62;88.875;919.5909;;;;
2021/01/31 05:25:34;;;;;;;1.4;0.9;;;;;;;4.64;88.75684;919.7131;;;;
2021/01/31 05:28:03;;;;;;;0.7;0.7;;;;;;;4.69;88.50488;919.6856;;;;
2021/01/31 05:30:28;;;;;;;0.8;0.5;;;;;;;4.76;87.95703;919.7084;;;;
2021/01/31 05:32:55;;;;;;;3.6;0.8;;;;;;;4.74;87.67383;919.6761;;;;
2021/01/31 05:35:21;;;;;;;1;0.7;;;;;;;4.74;87.55859;919.7195;;;;
2021/01/31 05:37:46;;;;;;;0.5;0.5;;;;;;;4.72;87.48926;919.7037;;;;
2021/01/31 05:40:15;;;;;;;1.1;0.7;;;;;;;4.71;87.56445;919.7865;;;;
2021/01/31 05:42:40;;;;;;;0.9;0.7;;;;;;;4.71;87.79004;919.8306;;;;
2021/01/31 05:45:05;;;;;;;1.6;0.8;;;;;;;4.74;87.59473;919.8803;;;;
2021/01/31 05:47:30;;;;;;;1.3;0.8;;;;;;;4.74;87.5498;919.8875;;;;
2021/01/31 05:49:56;;;;;;;1.9;1.1;;;;;;;4.69;87.73926;919.9016;;;;
2021/01/31 05:52:23;;;;;;;3.7;0.6;;;;;;;4.7;87.74316;919.8519;;;;
2021/01/31 05:54:48;;;;;;;3.3;1.6;;;;;;;4.69;87.68457;919.9622;;;;
2021/01/31 05:57:14;;;;;;;2.4;1.2;;;;;;;4.7;87.47266;919.9481;;;;
2021/01/31 05:59:40;;;;;;;0.3;0.3;;;;;;;4.74;87.20996;920.0419;;;;
2021/01/31 06:02:06;;;;;;;1.4;0.8;;;;;;;4.77;87.18359;920.0017;;;;
2021/01/31 06:04:33;;;;;;;2.5;0.7;;;;;;;4.62;87.38867;920.0378;;;;
2021/01/31 06:06:58;;;;;;;1.6;0.9;;;;;;;4.68;87.34277;920.0182;;;;
2021/01/31 06:09:24;;;;;;;0.9;0.7;;;;;;;4.54;87.7998;920.0444;;;;
2021/01/31 06:11:51;;;;;;;2.4;1;;;;;;;4.59;87.93457;920.009;;;;
2021/01/31 06:14:20;;;;;;;1.8;1.1;;;;;;;4.7;87.36035;920.1136;;;;
2021/01/31 06:16:45;;;;;;;2.2;0.8;;;;;;;4.7;87.42773;920.1223;;;;
2021/01/31 06:19:10;;;;;;;1.5;0.9;;;;;;;4.66;87.2832;920.1483;;;;
2021/01/31 06:21:36;;;;;;;1.1;1;;;;;;;4.6;87.71094;920.1588;;;;
2021/01/31 06:24:02;;;;;;;1.1;0.9;;;;;;;4.65;87.7998;920.1537;;;;
2021/01/31 06:26:28;;;;;;;1.5;1.1;;;;;;;4.67;87.38867;920.0867;;;;
2021/01/31 06:28:53;;;;;;;0.9;0.8;;;;;;;4.58;87.91016;920.2156;;;;
2021/01/31 06:31:19;;;;;;;5.2;0.9;;;;;;;4.58;88.07715;920.2534;;;;
2021/01/31 06:33:44;;;;;;;2.5;1.1;;;;;;;4.6;87.94824;920.3055;;;;
2021/01/31 06:36:09;;;;;;;1.1;0.8;;;;;;;4.69;87.63086;920.3248;;;;
2021/01/31 06:38:34;;;;;;;0.8;0.6;;;;;;;4.76;87.13672;920.3273;;;;
2021/01/31 06:41:01;;;;;;;1.6;0.8;;;;;;;4.79;86.78125;920.4402;;;;
2021/01/31 06:43:29;;;;;;;2.1;1.1;;;;;;;4.79;86.87207;920.4899;;;;
2021/01/31 06:45:58;;;;;;;3.2;1.6;;;;;;;4.8;86.45703;920.4575;;;;
2021/01/31 06:48:23;;;;;;;4.6;1.9;;;;;;;4.56;87.11816;920.5071;;;;
2021/01/31 06:50:48;;;;;;;0.5;0.5;;;;;;;4.51;87.24414;920.5976;;;;
2021/01/31 06:53:13;;;;;;;0.9;0.6;;;;;;;4.44;87.64551;920.6431;;;;
2021/01/31 06:55:39;;;;;;;1.2;0.6;;;;;;;4.32;88.18262;920.6707;;;;
2021/01/31 06:58:04;;;;;;;0.9;0.7;;;;;;;4.37;88.18262;920.722;;;;
2021/01/31 07:00:30;;;;;;;1;0.9;;;;;;;4.55;87.59863;920.7734;;;;
2021/01/31 07:02:57;;;;;;;1.3;1;;;;;;;4.53;87.43945;920.8152;;;;
2021/01/31 07:05:25;;;;;;;1.5;0.9;;;;;;;4.46;88.2666;920.8677;;;;
2021/01/31 07:07:50;;;;;;;1;0.8;;;;;;;4.5;88.47754;920.8859;;;;
2021/01/31 07:10:15;;;;;;;1.5;1.1;;;;;;;4.47;88.97949;920.8851;;;;
2021/01/31 07:12:40;;;;;;;5.1;1.2;;;;;;;4.41;89.05664;920.8439;;;;
2021/01/31 07:15:14;;;;;;;2.8;2;;;;;;;4.44;89.10938;920.8464;;;;
2021/01/31 07:17:44;;;;;;;1.8;1.1;;;;;;;4.5;89.24414;920.9128;;;;
2021/01/31 07:20:17;;;;;;;2.3;1.4;;;;;;;4.57;89.01172;920.8894;;;;
2021/01/31 07:22:44;;;;;;;2.8;1.5;;;;;;;4.32;90.0625;920.885;;;;
2021/01/31 07:25:10;;;;;;;2;1.3;;;;;;;4.24;90.90039;920.9059;;;;
2021/01/31 07:27:35;;;;;;;0.8;0.8;;;;;;;4.01;92.61719;920.9398;;;;
2021/01/31 07:30:00;;;;;;;0.7;0.7;;;;;;;3.99;93.71387;920.9702;;;;
2021/01/31 07:32:27;;;;;;;2.7;1.3;;;;;;;4.35;92.71094;920.9182;;;;
2021/01/31 07:34:57;;;;;;;2.4;1.2;;;;;;;4.48;91.92969;920.8654;;;;
2021/01/31 07:37:24;;;;;;;1.4;0.9;;;;;;;4.48;90.92969;920.9371;;;;
2021/01/31 07:39:50;;;;;;;1.2;1.1;;;;;;;4.41;90.46582;920.9116;;;;
2021/01/31 07:42:20;;;;;;;1.7;1.2;;;;;;;4.32;90.56836;920.959;;;;
2021/01/31 07:44:51;;;;;;;1.5;1.2;;;;;;;4.19;91.05957;920.951;;;;
2021/01/31 07:47:17;;;;;;;1.7;1.2;;;;;;;4.28;90.67285;921.0108;;;;
2021/01/31 07:49:42;;;;;;;1;0.8;;;;;;;4.44;90.24609;921.007;;;;
2021/01/31 07:52:07;;;;;;;3.2;0.6;;;;;;;4.59;89.78125;921.0447;;;;
2021/01/31 07:54:33;;;;;;;0.8;0.8;;;;;;;4.72;89.2334;921.0486;;;;
2021/01/31 07:56:57;;;;;;;0.9;0.7;;;;;;;4.64;88.75488;921.0421;;;;
2021/01/31 07:59:24;;;;;;;2.2;1.2;;;;;;;4.74;88.21191;921.0675;;;;
2021/01/31 08:01:49;;;;;;;7.1;3.1;;;;;;;4.8;88.03418;921.0378;;;;
2021/01/31 08:04:15;;;;;;;7;3.8;;;;;;;4.77;88.30957;921.1078;;;;
2021/01/31 08:06:45;;;;;;;4.4;2.4;;;;;;;4.81;88.10352;921.0744;;;;
2021/01/31 08:09:18;;;;;;;3;2.3;;;;;;;4.75;88.26074;921.0684;;;;
2021/01/31 08:11:49;;;;;;;2.7;1.8;;;;;;;4.69;88.16895;921.1209;;;;
2021/01/31 08:14:14;;;;;;;1.5;1;;;;;;;4.6;88.81445;921.0715;;;;
2021/01/31 08:16:39;;;;;;;2.1;1.3;;;;;;;4.5;89.25586;921.1847;;;;
2021/01/31 08:19:04;;;;;;;2;1.3;;;;;;;4.5;89.33301;921.1656;;;;
2021/01/31 08:21:29;;;;;;;0.9;0.7;;;;;;;4.65;89.41211;921.1729;;;;
2021/01/31 08:23:56;;;;;;;0.8;0.6;;;;;;;4.88;88.87305;921.1928;;;;
2021/01/31 08:26:21;;;;;;;1.1;1;;;;;;;4.98;88.28516;921.2475;;;;
2021/01/31 08:28:47;;;;;;;2.1;1.1;;;;;;;4.82;87.63379;921.2952;;;;
2021/01/31 08:31:13;;;;;;;2.1;0.8;;;;;;;4.98;87.5752;921.3445;;;;
2021/01/31 08:33:45;;;;;;;1.2;0.8;;;;;;;5.03;86.70703;921.3433;;;;
2021/01/31 08:36:10;;;;;;;1.6;0.9;;;;;;;4.65;87.04492;921.4086;;;;
2021/01/31 08:38:35;;;;;;;1.7;0.7;;;;;;;4.75;87.1123;921.4389;;;;
2021/01/31 08:41:00;;;;;;;0.7;0.6;;;;;;;4.79;86.98438;921.4595;;;;
2021/01/31 08:43:29;;;;;;;0.7;0.5;;;;;;;4.95;86.35059;921.465;;;;
2021/01/31 08:45:55;;;;;;;1.1;0.6;;;;;;;4.86;86.42285;921.5019;;;;
2021/01/31 08:48:20;;;;;;;1.2;0.8;;;;;;;4.81;86.57129;921.4702;;;;
2021/01/31 08:50:51;;;;;;;1.4;0.8;;;;;;;4.99;86.05566;921.563;;;;
2021/01/31 08:53:16;;;;;;;0.5;0.4;;;;;;;4.94;86.24707;921.5999;;;;
2021/01/31 08:55:47;;;;;;;1.1;0.7;;;;;;;5.03;86.24512;921.587;;;;
2021/01/31 08:58:12;;;;;;;1.2;0.9;;;;;;;5.21;85.58008;921.5491;;;;
2021/01/31 09:00:44;;;;;;;1.5;0.9;;;;;;;5.33;84.81641;921.5887;;;;
2021/01/31 09:03:08;;;;;;;0.7;0.7;;;;;;;5.29;84.44629;921.6116;;;;
2021/01/31 09:05:40;;;;;;;1.2;0.8;;;;;;;5.34;84.36621;921.5383;;;;
2021/01/31 09:08:04;;;;;;;0.9;0.7;;;;;;;5.37;84.22559;921.6102;;;;
2021/01/31 09:10:35;;;;;;;1.9;1;;;;;;;5.44;83.4834;921.5695;;;;
2021/01/31 09:13:05;;;;;;;1.3;0.9;;;;;;;5.5;83.47168;921.6383;;;;
2021/01/31 09:15:35;;;;;;;1.3;1;;;;;;;5.59;83.10547;921.6454;;;;
2021/01/31 09:18:04;;;;;;;1.4;1;;;;;;;5.62;82.80762;921.6339;;;;
2021/01/31 09:20:29;;;;;;;3.2;0.9;;;;;;;5.67;83.09863;921.6703;;;;
2021/01/31 09:22:59;;;;;;;1.5;0.9;;;;;;;5.73;82.52344;921.694;;;;
2021/01/31 09:25:24;;;;;;;2.4;1.4;;;;;;;5.64;82.77734;921.6624;;;;
2021/01/31 09:27:55;;;;;;;1.5;1.1;;;;;;;5.66;82.99512;921.6308;;;;
2021/01/31 09:30:20;;;;;;;1.6;1.2;;;;;;;5.29;83.61328;921.5824;;;;
2021/01/31 09:32:45;;;;;;;2.5;1.3;;;;;;;5.4;84.27734;921.6781;;;;
2021/01/31 09:35:10;;;;;;;1.4;1.1;;;;;;;;;;;;;
2021/01/31 09:37:38;;;;;;;0.9;0.8;;;;;;;;;;;;;
2021/01/31 09:40:03;;;;;;;1.3;0.7;;;;;;;;;;;;;
2021/01/31 09:42:30;;;;;;;0.6;0.6;;;;;;;;;;;;;
2021/01/31 09:44:55;;;;;;;0.8;0.7;;;;;;;;;;;;;
2021/01/31 09:47:21;;;;;;;1.4;1.1;;;;;;;;;;;;;
2021/01/31 09:49:46;;;;;;;0.8;0.8;;;;;;;;;;;;;
2021/01/31 09:52:12;;;;;;;1.5;0.9;;;;;;;;;;;;;
2021/01/31 09:54:37;;;;;;;1.7;1.3;;;;;;;;;;;;;
2021/01/31 09:57:04;;;;;;;2.9;1.4;;;;;;;;;;;;;
2021/01/31 09:59:30;;;;;;;3.6;1.4;;;;;;;;;;;;;
2021/01/31 10:01:55;;;;;;;1.4;0.8;;;;;;;;;;;;;
2021/01/31 10:04:20;;;;;;;1.7;1;;;;;;;;;;;;;
2021/01/31 10:06:46;;;;;;;0.8;0.8;;;;;;;;;;;;;
2021/01/31 10:09:11;;;;;;;1;0.9;;;;;;;;;;;;;
2021/01/31 10:11:38;;;;;;;2.1;1.4;;;;;;;;;;;;;
2021/01/31 10:14:01;;;;;;;1.2;1;;;;;;;;;;;;;
2021/01/31 10:16:27;;;;;;;1.1;0.9;;;;;;;;;;;;;
2021/01/31 10:18:52;;;;;;;0.8;0.8;;;;;;;;;;;;;
2021/01/31 10:21:17;;;;;;;1;0.9;;;;;;;;;;;;;
2021/01/31 10:23:42;;;;;;;1.2;0.8;;;;;;;;;;;;;
2021/01/31 10:26:08;;;;;;;1.1;1;;;;;;;;;;;;;
2021/01/31 10:28:35;;;;;;;2.3;1.7;;;;;;;;;;;;;
2021/01/31 10:31:00;;;;;;;4.8;2.3;;;;;;;;;;;;;
2021/01/31 10:33:28;;;;;;;3.5;1.5;;;;;;;;;;;;;
2021/01/31 10:35:53;;;;;;;2;1.6;;;;;;;;;;;;;
2021/01/31 10:38:19;;;;;;;1.7;1.2;;;;;;;;;;;;;
2021/01/31 10:40:44;;;;;;;1.3;1;;;;;;;;;;;;;
2021/01/31 10:43:10;;;;;;;1.6;1.1;;;;;;;;;;;;;
2021/01/31 10:45:35;;;;;;;1.5;1.1;;;;;;;;;;;;;
2021/01/31 10:48:00;;;;;;;1.3;1.2;;;;;;;;;;;;;
2021/01/31 10:50:25;;;;;;;2.1;1.3;;;;;;;;;;;;;
2021/01/31 10:52:52;;;;;;;1.9;1.3;;;;;;;;;;;;;
2021/01/31 10:55:18;;;;;;;1.6;0.9;;;;;;;;;;;;;
2021/01/31 10:57:47;;;;;;;1.3;0.9;;;;;;;;;;;;;
2021/01/31 11:00:15;;;;;;;1.2;0.8;;;;;;;;;;;;;
2021/01/31 11:02:40;;;;;;;2.2;1;;;;;;;;;;;;;
2021/01/31 11:05:08;;;;;;;1.1;1;;;;;;;;;;;;;
2021/01/31 11:07:33;;;;;;;1.3;1;;;;;;;;;;;;;
2021/01/31 11:09:59;;;;;;;1.3;1;;;;;;;;;;;;;
2021/01/31 11:12:24;;;;;;;0.9;0.7;;;;;;;;;;;;;
2021/01/31 11:14:50;;;;;;;0.7;0.6;;;;;;;;;;;;;
2021/01/31 11:17:15;;;;;;;1.8;1;;;;;;;;;;;;;
2021/01/31 11:19:40;;;;;;;2.3;0.9;;;;;;;;;;;;;
2021/01/31 11:22:05;;;;;;;2.7;2;;;;;;;;;;;;;
2021/01/31 11:24:31;;;;;;;2.8;1.5;;;;;;;;;;;;;
2021/01/31 11:26:56;;;;;;;2;1.3;;;;;;;;;;;;;
2021/01/31 11:29:23;;;;;;;1.5;1.1;;;;;;;;;;;;;
2021/01/31 11:31:48;;;;;;;1.5;1.1;;;;;;;;;;;;;
2021/01/31 11:34:13;;;;;;;1.8;1.1;;;;;;;;;;;;;
2021/01/31 11:36:39;;;;;;;2.8;1.6;;;;;;;;;;;;;
2021/01/31 11:39:08;;;;;;;1;0.9;;;;;;;;;;;;;
2021/01/31 11:41:30;;;;;;;1.4;1;;;;;;;;;;;;;
2021/01/31 11:43:55;;;;;;;1.7;1;;;;;;;;;;;;;
2021/01/31 11:46:21;;;;;;;1.4;1.1;;;;;;;;;;;;;
2021/01/31 11:48:47;;;;;;;1.5;1.1;;;;;;;;;;;;;
2021/01/31 11:51:12;;;;;;;1.1;0.7;;;;;;;;;;;;;
2021/01/31 11:53:39;;;;;;;1;0.9;;;;;;;;;;;;;
2021/01/31 11:56:03;;;;;;;1.4;1;;;;;;;;;;;;;
2021/01/31 11:58:30;;;;;;;0.9;0.9;;;;;;;;;;;;;
2021/01/31 12:00:55;;;;;;;1.1;0.9;;;;;;;;;;;;;
2021/01/31 12:03:22;;;;;;;1.3;1.1;;;;;;;;;;;;;
2021/01/31 12:05:47;;;;;;;1.3;1.1;;;;;;;;;;;;;
2021/01/31 12:08:12;;;;;;;1.2;0.9;;;;;;;;;;;;;
2021/01/31 12:10:37;;;;;;;1.1;1;;;;;;;;;;;;;
2021/01/31 12:13:04;;;;;;;1.2;0.9;;;;;;;;;;;;;
2021/01/31 12:15:30;;;;;;;2.2;1;;;;;;;;;;;;;
2021/01/31 12:17:56;;;;;;;1.6;1.1;;;;;;;;;;;;;
2021/01/31 12:20:21;;;;;;;1.8;1;;;;;;;;;;;;;
2021/01/31 12:22:48;;;;;;;3.4;1.3;;;;;;;;;;;;;
2021/01/31 12:25:13;;;;;;;1.5;1.1;;;;;;;;;;;;;
2021/01/31 12:27:38;;;;;;;1.2;1;;;;;;;;;;;;;
2021/01/31 12:30:03;;;;;;;2.1;1.2;;;;;;;;;;;;;
2021/01/31 12:32:30;;;;;;;2;1.4;;;;;;;;;;;;;
2021/01/31 12:34:55;;;;;;;2.7;1.3;;;;;;;;;;;;;
2021/01/31 12:37:21;;;;;;;2.2;1.4;;;;;;;;;;;;;
2021/01/31 12:39:45;;;;;;;1.9;1.3;;;;;;;;;;;;;
2021/01/31 12:42:12;;;;;;;2.4;1.3;;;;;;;;;;;;;
2021/01/31 12:44:37;;;;;;;1.3;1;;;;;;;;;;;;;
2021/01/31 12:47:03;;;;;;;1.9;1.2;;;;;;;;;;;;;
2021/01/31 12:49:28;;;;;;;2.4;1.6;;;;;;;;;;;;;
2021/01/31 12:51:55;;;;;;;2.7;1.6;;;;;;;;;;;;;
2021/01/31 12:54:23;;;;;;;2.9;1.3;;;;;;;;;;;;;
2021/01/31 12:56:45;;;;;;;2.2;1.8;;;;;;;;;;;;;
2021/01/31 12:59:10;;;;;;;2;1.4;;;;;;;;;;;;;
2021/01/31 13:01:35;;;;;;;3.6;1.8;;;;;;;;;;;;;
2021/01/31 13:04:00;;;;;;;3.7;1.9;;;;;;;;;;;;;
2021/01/31 13:06:26;;;;;;;2.4;1.8;;;;;;;;;;;;;
2021/01/31 13:08:55;;;;;;;3.5;2.1;;;;;;;;;;;;;
2021/01/31 13:11:22;;;;;;;2.4;1.6;;;;;;;;;;;;;
2021/01/31 13:13:47;;;;;;;2.2;1.5;;;;;;;;;;;;;
2021/01/31 13:16:14;;;;;;;2.5;1.5;;;;;;;;;;;;;
2021/01/31 13:18:38;;;;;;;2.6;1.3;;;;;;;;;;;;;
2021/01/31 13:21:04;;;;;;;1.3;1.1;;;;;;;;;;;;;
2021/01/31 13:23:30;;;;;;;1.2;1.1;;;;;;;;;;;;;
2021/01/31 13:25:56;;;;;;;1.9;1.3;;;;;;;;;;;;;
2021/01/31 13:28:21;;;;;;;2.1;1.3;;;;;;;;;;;;;
2021/01/31 13:30:48;;;;;;;2.4;1.7;;;;;;;;;;;;;
2021/01/31 13:33:13;;;;;;;2;1.5;;;;;;;;;;;;;
2021/01/31 13:35:40;;;;;;;2;1.4;;;;;;;;;;;;;
2021/01/31 13:38:05;;;;;;;2.5;1.8;;;;;;;;;;;;;
2021/01/31 13:40:31;;;;;;;2.5;1.4;;;;;;;;;;;;;
2021/01/31 13:42:56;;;;;;;5;2.5;;;;;;;;;;;;;
2021/01/31 13:45:21;;;;;;;3.1;1.9;;;;;;;;;;;;;
2021/01/31 13:47:46;;;;;;;3.1;1.6;;;;;;;;;;;;;
2021/01/31 13:50:13;;;;;;;2.6;2;;;;;;;;;;;;;
2021/01/31 13:52:38;;;;;;;3.4;2.4;;;;;;;;;;;;;
2021/01/31 13:55:03;;;;;;;3.5;2.3;;;;;;;;;;;;;
2021/01/31 13:57:28;;;;;;;4.1;2.7;;;;;;;;;;;;;
2021/01/31 13:59:55;;;;;;;4.4;2.9;;;;;;;;;;;;;
2021/01/31 14:02:20;;;;;;;4.5;2.8;;;;;;;;;;;;;
2021/01/31 14:04:48;;;;;;;5.5;2.7;;;;;;;;;;;;;
2021/01/31 14:07:11;;;;;;;4.1;2.7;;;;;;;;;;;;;
2021/01/31 14:09:38;;;;;;;1.9;1.6;;;;;;;;;;;;;
2021/01/31 14:12:03;;;;;;;2.5;1.9;;;;;;;;;;;;;
2021/01/31 14:14:28;;;;;;;4.3;2;;;;;;;;;;;;;
2021/01/31 14:16:54;;;;;;;3.1;2.2;;;;;;;;;;;;;
2021/01/31 14:19:20;;;;;;;1.9;1.6;;;;;;;;;;;;;
2021/01/31 14:21:45;;;;;;;2.9;1.9;;;;;;;;;;;;;
2021/01/31 14:24:11;;;;;;;2.8;2;;;;;;;;;;;;;
2021/01/31 14:26:36;;;;;;;2.5;1.8;;;;;;;;;;;;;
2021/01/31 14:29:03;;;;;;;2.6;1.8;;;;;;;;;;;;;
2021/01/31 14:31:27;;;;;;;4.3;2.4;;;;;;;;;;;;;
2021/01/31 14:33:53;;;;;;;2.7;1.9;;;;;;;;;;;;;
2021/01/31 14:36:19;;;;;;;2.8;2;;;;;;;;;;;;;
2021/01/31 14:38:48;;;;;;;1.9;1.7;;;;;;;;;;;;;
2021/01/31 14:41:15;;;;;;;2.2;1.6;;;;;;;;;;;;;
2021/01/31 14:43:40;;;;;;;2.5;1.4;;;;;;;;;;;;;
2021/01/31 14:46:06;;;;;;;5.3;2;;;;;;;;;;;;;
2021/01/31 14:48:31;;;;;;;1.9;1.5;;;;;;;;;;;;;
2021/01/31 14:50:58;;;;;;;2;1.7;;;;;;;;;;;;;
2021/01/31 14:53:23;;;;;;;3.5;1.9;;;;;;;;;;;;;
2021/01/31 14:55:50;;;;;;;3.7;2.2;;;;;;;;;;;;;
2021/01/31 14:58:15;;;;;;;2.7;1.8;;;;;;;;;;;;;
2021/01/31 15:00:43;;;;;;;4.7;2;;;;;;;;;;;;;
2021/01/31 15:03:10;;;;;;;4.5;2.2;;;;;;;;;;;;;
2021/01/31 15:05:34;;;;;;;3.4;1.5;;;;;;;;;;;;;
2021/01/31 15:07:58;;;;;;;4;2.3;;;;;;;;;;;;;
2021/01/31 15:10:23;;;;;;;2.5;1.7;;;;;;;;;;;;;
2021/01/31 15:12:48;;;;;;;2.8;2;;;;;;;;;;;;;
2021/01/31 15:15:14;;;;;;;3.4;2.2;;;;;;;;;;;;;
2021/01/31 15:17:40;;;;;;;3.9;2.4;;;;;;;;;;;;;
2021/01/31 15:20:06;;;;;;;3.6;2.5;;;;;;;;;;;;;
2021/01/31 15:22:31;;;;;;;2.9;1.8;;;;;;;;;;;;;
2021/01/31 15:24:57;;;;;;;2.7;2.2;;;;;;;;;;;;;
2021/01/31 15:27:22;;;;;;;5.6;2.7;;;;;;;;;;;;;
2021/01/31 15:29:47;;;;;;;3.6;2.2;;;;;;;;;;;;;
2021/01/31 15:32:14;;;;;;;4.1;2.5;;;;;;;;;;;;;
2021/01/31 15:34:39;;;;;;;3;1.8;;;;;;;;;;;;;
2021/01/31 15:37:05;;;;;;;3.8;2.2;;;;;;;;;;;;;
2021/01/31 15:39:30;;;;;;;5.7;2.5;;;;;;;;;;;;;
2021/01/31 15:41:56;;;;;;;4.8;2.5;;;;;;;;;;;;;
2021/01/31 15:44:21;;;;;;;8;2.9;;;;;;;;;;;;;
2021/01/31 15:46:47;;;;;;;4.3;3;;;;;;;;;;;;;
2021/01/31 15:49:12;;;;;;;6.1;2.4;;;;;;;;;;;;;
2021/01/31 15:51:38;;;;;;;4.6;2.3;;;;;;;;;;;;;
2021/01/31 15:54:03;;;;;;;5.2;3;;;;;;;;;;;;;
2021/01/31 15:56:34;;;;;;;5.1;2.4;;;;;;;;;;;;;
2021/01/31 15:59:00;;;;;;;6;3.3;;;;;;;;;;;;;
2021/01/31 16:01:25;;;;;;;6;3;;;;;;;;;;;;;
2021/01/31 16:03:51;;;;;;;7.6;3.1;;;;;;;;;;;;;
2021/01/31 16:06:16;;;;;;;4.6;2.3;;;;;;;;;;;;;
2021/01/31 16:08:42;;;;;;;2.2;1.7;;;;;;;;;;;;;
2021/01/31 16:11:07;;;;;;;3;2.4;;;;;;;;;;;;;
2021/01/31 16:13:32;;;;;;;3.6;2.2;;;;;;;;;;;;;
2021/01/31 16:15:59;;;;;;;3.8;2.6;;;;;;;;;;;;;
2021/01/31 16:18:24;;;;;;;2.6;2;;;;;;;;;;;;;
2021/01/31 16:20:49;;;;;;;4.8;2.8;;;;;;;;;;;;;
2021/01/31 16:23:15;;;;;;;6.8;2.9;;;;;;;;;;;;;
2021/01/31 16:25:40;;;;;;;3.9;2.4;;;;;;;;;;;;;
2021/01/31 16:28:07;;;;;;;4.1;2.5;;;;;;;;;;;;;
2021/01/31 16:30:32;;;;;;;3.7;2.4;;;;;;;;;;;;;
2021/01/31 16:32:58;;;;;;;3.7;2.2;;;;;;;;;;;;;
2021/01/31 16:35:23;;;;;;;5.1;2.5;;;;;;;;;;;;;
2021/01/31 16:37:50;;;;;;;3.2;2.2;;;;;;;;;;;;;
2021/01/31 16:40:15;;;;;;;6;3;;;;;;;;;;;;;
2021/01/31 16:42:41;;;;;;;5.5;2.7;;;;;;;;;;;;;
2021/01/31 16:45:06;;;;;;;5.6;2.5;;;;;;;;;;;;;
2021/01/31 16:47:32;;;;;;;5.2;3;;;;;;;;;;;;;
2021/01/31 16:49:57;;;;;;;4.9;2.8;;;;;;;;;;;;;
2021/01/31 16:52:24;;;;;;;5;3;;;;;;;;;;;;;
2021/01/31 16:54:49;;;;;;;3.7;2.3;;;;;;;;;;;;;
2021/01/31 16:57:15;;;;;;;4.3;2.7;;;;;;;;;;;;;
2021/01/31 16:59:39;;;;;;;3.3;2.4;;;;;;;;;;;;;
2021/01/31 17:02:05;;;;;;;5.2;3;;;;;;;;;;;;;
2021/01/31 17:04:31;;;;;;;7.7;2.9;;;;;;;;;;;;;
2021/01/31 17:06:58;;;;;;;3.5;2.7;;;;;;;;;;;;;
2021/01/31 17:09:22;;;;;;;6.4;2.9;;;;;;;;;;;;;
2021/01/31 17:11:47;;;;;;;5.8;3;;;;;;;;;;;;;
2021/01/31 17:14:12;;;;;;;3.7;2;;;;;;;;;;;;;
2021/01/31 17:16:39;;;;;;;5.2;2.9;;;;;;;;;;;;;
2021/01/31 17:19:04;;;;;;;6.1;2.8;;;;;;;;;;;;;
2021/01/31 17:21:30;;;;;;;9.5;4;;;;;;;;;;;;;
2021/01/31 17:23:55;;;;;;;3.5;2.8;;;;;;;;;;;;;
2021/01/31 17:26:22;;;;;;;5.9;3.3;;;;;;;;;;;;;
2021/01/31 17:28:47;;;;;;;3.5;2.1;;;;;;;;;;;;;
2021/01/31 17:31:13;;;;;;;4.4;2.5;;;;;;;;;;;;;
2021/01/31 17:33:38;;;;;;;5;2.6;;;;;;;;;;;;;
2021/01/31 17:36:03;;;;;;;3;2.2;;;;;;;;;;;;;
2021/01/31 17:38:29;;;;;;;7.8;2.7;;;;;;;;;;;;;
2021/01/31 17:40:54;;;;;;;5.8;3.4;;;;;;;;;;;;;
2021/01/31 17:43:20;;;;;;;6.3;2.9;;;;;;;;;;;;;
2021/01/31 17:45:46;;;;;;;6.3;3.2;;;;;;;;;;;;;
2021/01/31 17:48:13;;;;;;;5.3;3.1;;;;;;;;;;;;;
2021/01/31 17:50:37;;;;;;;5.1;3.7;;;;;;;;;;;;;
2021/01/31 17:53:01;;;;;;;7.1;4;;;;;;;;;;;;;
2021/01/31 17:55:26;;;;;;;9.4;5.1;;;;;;;;;;;;;
2021/01/31 17:57:52;;;;;;;11.1;5.9;;;;;;;;;;;;;
2021/01/31 18:00:17;;;;;;;19.2;8.2;;;;;;;;;;;;;
2021/01/31 18:02:42;;;;;;;20.1;8.2;;;;;;;;;;;;;
2021/01/31 18:05:07;;;;;;;16.1;7.9;;;;;;;;;;;;;
2021/01/31 18:07:34;;;;;;;12.3;7.4;;;;;;;;;;;;;
2021/01/31 18:09:59;;;;;;;12.2;7;;;;;;;;;;;;;
2021/01/31 18:12:27;;;;;;;17.8;8.7;;;;;;;;;;;;;
2021/01/31 18:14:52;;;;;;;19.3;10.8;;;;;;;;;;;;;
2021/01/31 18:17:17;;;;;;;23.5;11.4;;;;;;;;;;;;;
2021/01/31 18:19:42;;;;;;;12.8;7.2;;;;;;;;;;;;;
2021/01/31 18:22:08;;;;;;;20.2;8.2;;;;;;;;;;;;;